KSNK/SNK METAR and TAF weather

Enter ICAO airport designator
Station Type Date Time Source
KSNK METAR 2023/01/29 19:35 UTC NOAA

KSNK 291935Z AUTO 04010G15KT 10SM OVC011 M02/M05 A3012 RMK AO2 T10191053


Station Type Date Time Source
KSNK Decoded METAR 2023/01/29 19:35 UTC NOAA

Snyder, Winston Field Airport, TX, United States (KSNK) 32-41-36N 100-57-01W
Jan 29, 2023 - 02:35 PM EST / 2023.01.29 1935 UTC
Wind: from the NE (040 degrees) at 12 MPH (10 KT) gusting to 17 MPH (15 KT):0
Visibility: 10 mile(s):0
Sky conditions: overcast
Temperature: 28.6 F (-1.9 C)
Windchill: 19 F (-7 C):1
Dew Point: 22.5 F (-5.3 C)
Relative Humidity: 77%
Pressure (altimeter): 30.12 in. Hg (1019 hPa)
ob: KSNK 291935Z AUTO 04010G15KT 10SM OVC011 M02/M05 A3012 RMK AO2 T10191053
cycle: 19

Station Type Date Time Source
KSNK TAF UTC NOAA

Error!

Example: see airport list